Lingle, Wyoming
Current Conditions -  °F | °C
As of 7:15 PM on Monday 22 Dec 2014 (Local Time) from KGUR Reporting Station
Clear Clear  
Wind Chill: -3°   Ceiling: Unl
Heat Index:   Visibility: 10mi
Dew Point: -2°   Wind: 22mph
Humidity: 69%   Direction: 310°NW
Pressure: 29.78"   Gusts: 33mph
Location:  42.14°N, 104.35°W
Report Text: KGUR 230215Z AUTO 31019G29KT 10SM CLR 03/M02 A2978 RMK AO2 T00321020
Loading
Personal Weather Stations






























Interactive Weather Map New forecast layout! Learn more

10-Day Weather Forecast

Advertisements
Track Severe Weather on mobile